sensor_id;sensor_type;location;lat;lon;timestamp;P1;durP1;ratioP1;P2;durP2;ratioP2
69323;SDS011;56470;47.350;8.718;2022-07-22T00:01:27;12.52;;;8.40;;
69323;SDS011;56470;47.350;8.718;2022-07-22T00:03:52;12.33;;;7.97;;
69323;SDS011;56470;47.350;8.718;2022-07-22T00:06:18;11.70;;;8.20;;
69323;SDS011;56470;47.350;8.718;2022-07-22T00:08:43;12.73;;;8.93;;
69323;SDS011;56470;47.350;8.718;2022-07-22T00:11:08;10.82;;;7.97;;
69323;SDS011;56470;47.350;8.718;2022-07-22T00:13:34;14.17;;;9.00;;
69323;SDS011;56470;47.350;8.718;2022-07-22T00:15:59;11.43;;;8.43;;
69323;SDS011;56470;47.350;8.718;2022-07-22T00:18:25;9.83;;;7.97;;
69323;SDS011;56470;47.350;8.718;2022-07-22T00:20:50;10.77;;;8.10;;
69323;SDS011;56470;47.350;8.718;2022-07-22T00:23:15;11.05;;;7.93;;
69323;SDS011;56470;47.350;8.718;2022-07-22T00:25:41;14.57;;;8.10;;
69323;SDS011;56470;47.350;8.718;2022-07-22T00:28:06;12.07;;;8.43;;
69323;SDS011;56470;47.350;8.718;2022-07-22T00:30:32;11.23;;;8.10;;
69323;SDS011;56470;47.350;8.718;2022-07-22T00:32:57;10.77;;;7.78;;
69323;SDS011;56470;47.350;8.718;2022-07-22T00:35:23;13.87;;;7.50;;
69323;SDS011;56470;47.350;8.718;2022-07-22T00:37:48;12.23;;;8.50;;
69323;SDS011;56470;47.350;8.718;2022-07-22T00:40:13;11.63;;;8.25;;
69323;SDS011;56470;47.350;8.718;2022-07-22T00:42:39;12.30;;;8.17;;
69323;SDS011;56470;47.350;8.718;2022-07-22T00:45:05;11.30;;;7.20;;
69323;SDS011;56470;47.350;8.718;2022-07-22T00:47:31;12.40;;;8.35;;
69323;SDS011;56470;47.350;8.718;2022-07-22T00:49:57;10.17;;;7.60;;
69323;SDS011;56470;47.350;8.718;2022-07-22T00:52:22;12.57;;;8.40;;
69323;SDS011;56470;47.350;8.718;2022-07-22T00:54:48;11.55;;;8.02;;
69323;SDS011;56470;47.350;8.718;2022-07-22T00:57:14;11.37;;;7.37;;
69323;SDS011;56470;47.350;8.718;2022-07-22T00:59:40;11.98;;;7.93;;
69323;SDS011;56470;47.350;8.718;2022-07-22T01:02:05;11.20;;;7.90;;
69323;SDS011;56470;47.350;8.718;2022-07-22T01:04:30;13.33;;;8.20;;
69323;SDS011;56470;47.350;8.718;2022-07-22T01:06:56;10.77;;;8.40;;
69323;SDS011;56470;47.350;8.718;2022-07-22T01:09:21;10.77;;;7.72;;
69323;SDS011;56470;47.350;8.718;2022-07-22T01:11:47;10.90;;;7.53;;
69323;SDS011;56470;47.350;8.718;2022-07-22T01:14:12;10.87;;;8.03;;
69323;SDS011;56470;47.350;8.718;2022-07-22T01:16:37;12.20;;;8.67;;
69323;SDS011;56470;47.350;8.718;2022-07-22T01:19:03;13.33;;;8.97;;
69323;SDS011;56470;47.350;8.718;2022-07-22T01:21:30;15.25;;;9.18;;
69323;SDS011;56470;47.350;8.718;2022-07-22T01:23:55;12.43;;;8.75;;
69323;SDS011;56470;47.350;8.718;2022-07-22T01:26:21;11.53;;;8.30;;
69323;SDS011;56470;47.350;8.718;2022-07-22T01:28:46;11.53;;;8.03;;
69323;SDS011;56470;47.350;8.718;2022-07-22T01:31:11;10.93;;;8.15;;
69323;SDS011;56470;47.350;8.718;2022-07-22T01:33:37;13.43;;;8.23;;
69323;SDS011;56470;47.350;8.718;2022-07-22T01:36:03;12.77;;;8.45;;
69323;SDS011;56470;47.350;8.718;2022-07-22T01:38:29;11.88;;;7.68;;
69323;SDS011;56470;47.350;8.718;2022-07-22T01:40:55;11.33;;;8.20;;
69323;SDS011;56470;47.350;8.718;2022-07-22T01:43:20;12.03;;;8.13;;
69323;SDS011;56470;47.350;8.718;2022-07-22T01:45:46;11.83;;;8.43;;
69323;SDS011;56470;47.350;8.718;2022-07-22T01:48:13;12.85;;;8.30;;
69323;SDS011;56470;47.350;8.718;2022-07-22T01:50:40;11.07;;;8.30;;
69323;SDS011;56470;47.350;8.718;2022-07-22T01:53:06;10.68;;;7.72;;
69323;SDS011;56470;47.350;8.718;2022-07-22T01:55:31;10.83;;;8.57;;
69323;SDS011;56470;47.350;8.718;2022-07-22T01:57:57;10.57;;;7.68;;
69323;SDS011;56470;47.350;8.718;2022-07-22T02:00:22;11.80;;;7.33;;
69323;SDS011;56470;47.350;8.718;2022-07-22T02:02:47;11.13;;;7.93;;
69323;SDS011;56470;47.350;8.718;2022-07-22T02:05:13;13.57;;;7.73;;
69323;SDS011;56470;47.350;8.718;2022-07-22T02:07:38;11.07;;;8.07;;
69323;SDS011;56470;47.350;8.718;2022-07-22T02:10:04;10.18;;;7.07;;
69323;SDS011;56470;47.350;8.718;2022-07-22T02:12:30;10.43;;;7.53;;
69323;SDS011;56470;47.350;8.718;2022-07-22T02:14:56;11.30;;;7.43;;
69323;SDS011;56470;47.350;8.718;2022-07-22T02:17:22;10.97;;;7.90;;
69323;SDS011;56470;47.350;8.718;2022-07-22T02:19:47;11.65;;;8.32;;
69323;SDS011;56470;47.350;8.718;2022-07-22T02:22:12;11.23;;;7.90;;
69323;SDS011;56470;47.350;8.718;2022-07-22T02:24:38;10.40;;;7.80;;
69323;SDS011;56470;47.350;8.718;2022-07-22T02:27:03;10.73;;;7.67;;
69323;SDS011;56470;47.350;8.718;2022-07-22T02:29:29;12.02;;;7.65;;
69323;SDS011;56470;47.350;8.718;2022-07-22T02:31:54;10.97;;;7.60;;
69323;SDS011;56470;47.350;8.718;2022-07-22T02:34:20;13.30;;;8.02;;
69323;SDS011;56470;47.350;8.718;2022-07-22T02:36:45;11.67;;;8.20;;
69323;SDS011;56470;47.350;8.718;2022-07-22T02:39:11;11.83;;;8.10;;
69323;SDS011;56470;47.350;8.718;2022-07-22T02:41:36;11.00;;;7.77;;
69323;SDS011;56470;47.350;8.718;2022-07-22T02:44:01;10.10;;;7.70;;
69323;SDS011;56470;47.350;8.718;2022-07-22T02:46:27;11.33;;;7.73;;
69323;SDS011;56470;47.350;8.718;2022-07-22T02:48:55;11.85;;;8.55;;
69323;SDS011;56470;47.350;8.718;2022-07-22T02:51:21;11.73;;;7.63;;
69323;SDS011;56470;47.350;8.718;2022-07-22T02:53:46;10.63;;;7.83;;
69323;SDS011;56470;47.350;8.718;2022-07-22T02:56:12;12.20;;;8.80;;
69323;SDS011;56470;47.350;8.718;2022-07-22T02:58:37;10.13;;;7.87;;
69323;SDS011;56470;47.350;8.718;2022-07-22T03:01:02;13.10;;;8.43;;
69323;SDS011;56470;47.350;8.718;2022-07-22T03:03:28;12.10;;;8.10;;
69323;SDS011;56470;47.350;8.718;2022-07-22T03:05:53;10.70;;;7.63;;
69323;SDS011;56470;47.350;8.718;2022-07-22T03:08:18;12.37;;;8.70;;
69323;SDS011;56470;47.350;8.718;2022-07-22T03:10:44;13.32;;;8.27;;
69323;SDS011;56470;47.350;8.718;2022-07-22T03:13:09;11.73;;;8.70;;
69323;SDS011;56470;47.350;8.718;2022-07-22T03:15:34;12.27;;;8.50;;
69323;SDS011;56470;47.350;8.718;2022-07-22T03:18:00;14.33;;;8.33;;
69323;SDS011;56470;47.350;8.718;2022-07-22T03:20:25;9.83;;;6.97;;
69323;SDS011;56470;47.350;8.718;2022-07-22T03:22:51;10.43;;;7.20;;
69323;SDS011;56470;47.350;8.718;2022-07-22T03:25:16;10.90;;;7.63;;
69323;SDS011;56470;47.350;8.718;2022-07-22T03:27:42;11.03;;;7.57;;
69323;SDS011;56470;47.350;8.718;2022-07-22T03:30:07;12.45;;;7.50;;
69323;SDS011;56470;47.350;8.718;2022-07-22T03:32:33;10.73;;;7.33;;
69323;SDS011;56470;47.350;8.718;2022-07-22T03:34:58;10.87;;;7.37;;
69323;SDS011;56470;47.350;8.718;2022-07-22T03:37:23;11.20;;;6.73;;
69323;SDS011;56470;47.350;8.718;2022-07-22T03:39:49;11.10;;;7.00;;
69323;SDS011;56470;47.350;8.718;2022-07-22T03:42:14;10.80;;;7.63;;
69323;SDS011;56470;47.350;8.718;2022-07-22T03:44:39;10.13;;;7.30;;
69323;SDS011;56470;47.350;8.718;2022-07-22T03:47:05;9.90;;;7.00;;
69323;SDS011;56470;47.350;8.718;2022-07-22T03:49:31;11.40;;;7.82;;
69323;SDS011;56470;47.350;8.718;2022-07-22T03:51:57;11.25;;;7.93;;
69323;SDS011;56470;47.350;8.718;2022-07-22T03:54:22;13.20;;;7.87;;
69323;SDS011;56470;47.350;8.718;2022-07-22T03:56:48;11.00;;;7.53;;
69323;SDS011;56470;47.350;8.718;2022-07-22T03:59:13;13.23;;;8.18;;
69323;SDS011;56470;47.350;8.718;2022-07-22T04:01:39;12.23;;;7.90;;
69323;SDS011;56470;47.350;8.718;2022-07-22T04:04:05;10.23;;;7.37;;
69323;SDS011;56470;47.350;8.718;2022-07-22T04:06:30;11.07;;;7.73;;
69323;SDS011;56470;47.350;8.718;2022-07-22T04:08:56;11.00;;;7.95;;
69323;SDS011;56470;47.350;8.718;2022-07-22T04:11:22;10.73;;;7.97;;
69323;SDS011;56470;47.350;8.718;2022-07-22T04:13:47;11.37;;;8.10;;
69323;SDS011;56470;47.350;8.718;2022-07-22T04:16:12;10.60;;;8.30;;
69323;SDS011;56470;47.350;8.718;2022-07-22T04:18:38;13.55;;;8.00;;
69323;SDS011;56470;47.350;8.718;2022-07-22T04:21:03;12.23;;;6.70;;
69323;SDS011;56470;47.350;8.718;2022-07-22T04:23:29;11.97;;;8.00;;
69323;SDS011;56470;47.350;8.718;2022-07-22T04:25:54;10.05;;;7.07;;
69323;SDS011;56470;47.350;8.718;2022-07-22T04:28:20;10.63;;;7.50;;
69323;SDS011;56470;47.350;8.718;2022-07-22T04:30:46;10.10;;;6.88;;
69323;SDS011;56470;47.350;8.718;2022-07-22T04:33:11;11.07;;;6.83;;
69323;SDS011;56470;47.350;8.718;2022-07-22T04:35:37;10.27;;;7.03;;
69323;SDS011;56470;47.350;8.718;2022-07-22T04:38:02;10.73;;;6.73;;
69323;SDS011;56470;47.350;8.718;2022-07-22T04:40:28;10.97;;;6.97;;
69323;SDS011;56470;47.350;8.718;2022-07-22T04:42:53;10.18;;;7.03;;
69323;SDS011;56470;47.350;8.718;2022-07-22T04:45:19;11.20;;;7.47;;
69323;SDS011;56470;47.350;8.718;2022-07-22T04:47:44;10.37;;;6.77;;
69323;SDS011;56470;47.350;8.718;2022-07-22T04:50:09;9.97;;;7.07;;
69323;SDS011;56470;47.350;8.718;2022-07-22T04:52:35;11.70;;;8.05;;
69323;SDS011;56470;47.350;8.718;2022-07-22T04:55:00;12.33;;;7.77;;
69323;SDS011;56470;47.350;8.718;2022-07-22T04:57:26;14.90;;;7.90;;
69323;SDS011;56470;47.350;8.718;2022-07-22T04:59:53;9.63;;;7.25;;
69323;SDS011;56470;47.350;8.718;2022-07-22T05:02:21;9.33;;;6.57;;
69323;SDS011;56470;47.350;8.718;2022-07-22T05:04:46;10.48;;;7.15;;
69323;SDS011;56470;47.350;8.718;2022-07-22T05:07:12;10.37;;;7.50;;
69323;SDS011;56470;47.350;8.718;2022-07-22T05:09:37;10.30;;;6.97;;
69323;SDS011;56470;47.350;8.718;2022-07-22T05:12:03;11.33;;;7.23;;
69323;SDS011;56470;47.350;8.718;2022-07-22T05:14:28;11.93;;;6.93;;
69323;SDS011;56470;47.350;8.718;2022-07-22T05:17:03;11.38;;;6.68;;
69323;SDS011;56470;47.350;8.718;2022-07-22T05:19:33;10.73;;;7.50;;
69323;SDS011;56470;47.350;8.718;2022-07-22T05:21:59;9.60;;;7.10;;
69323;SDS011;56470;47.350;8.718;2022-07-22T05:24:24;10.87;;;7.27;;
69323;SDS011;56470;47.350;8.718;2022-07-22T05:26:49;14.60;;;8.67;;
69323;SDS011;56470;47.350;8.718;2022-07-22T05:29:18;11.65;;;8.13;;
69323;SDS011;56470;47.350;8.718;2022-07-22T05:31:43;11.37;;;6.93;;
69323;SDS011;56470;47.350;8.718;2022-07-22T05:34:08;11.23;;;7.43;;
69323;SDS011;56470;47.350;8.718;2022-07-22T05:36:34;10.80;;;7.30;;
69323;SDS011;56470;47.350;8.718;2022-07-22T05:39:02;12.68;;;7.80;;
69323;SDS011;56470;47.350;8.718;2022-07-22T05:41:27;10.23;;;7.67;;
69323;SDS011;56470;47.350;8.718;2022-07-22T05:46:45;11.60;;;8.20;;
69323;SDS011;56470;47.350;8.718;2022-07-22T05:49:12;10.90;;;7.20;;
69323;SDS011;56470;47.350;8.718;2022-07-22T05:51:38;10.73;;;7.10;;
69323;SDS011;56470;47.350;8.718;2022-07-22T05:54:05;10.88;;;6.90;;
69323;SDS011;56470;47.350;8.718;2022-07-22T05:56:32;10.18;;;6.95;;
69323;SDS011;56470;47.350;8.718;2022-07-22T05:59:00;10.05;;;7.13;;
69323;SDS011;56470;47.350;8.718;2022-07-22T06:01:25;12.00;;;7.97;;
69323;SDS011;56470;47.350;8.718;2022-07-22T06:03:55;10.35;;;8.05;;
69323;SDS011;56470;47.350;8.718;2022-07-22T06:06:25;10.80;;;7.95;;
69323;SDS011;56470;47.350;8.718;2022-07-22T06:08:50;12.07;;;8.07;;
69323;SDS011;56470;47.350;8.718;2022-07-22T06:11:16;10.73;;;7.20;;
69323;SDS011;56470;47.350;8.718;2022-07-22T06:13:41;11.90;;;7.47;;
69323;SDS011;56470;47.350;8.718;2022-07-22T06:16:09;11.15;;;7.43;;
69323;SDS011;56470;47.350;8.718;2022-07-22T06:18:36;10.70;;;8.07;;
69323;SDS011;56470;47.350;8.718;2022-07-22T06:21:02;14.50;;;8.20;;
69323;SDS011;56470;47.350;8.718;2022-07-22T06:23:28;17.92;;;8.52;;
69323;SDS011;56470;47.350;8.718;2022-07-22T06:25:54;11.18;;;7.65;;
69323;SDS011;56470;47.350;8.718;2022-07-22T06:28:20;10.67;;;7.00;;
69323;SDS011;56470;47.350;8.718;2022-07-22T06:30:48;16.77;;;7.78;;
69323;SDS011;56470;47.350;8.718;2022-07-22T06:33:14;10.43;;;7.07;;
69323;SDS011;56470;47.350;8.718;2022-07-22T06:35:39;11.10;;;7.88;;
69323;SDS011;56470;47.350;8.718;2022-07-22T06:38:05;13.20;;;7.87;;
69323;SDS011;56470;47.350;8.718;2022-07-22T06:40:31;9.85;;;7.22;;
69323;SDS011;56470;47.350;8.718;2022-07-22T06:42:56;9.63;;;7.33;;
69323;SDS011;56470;47.350;8.718;2022-07-22T06:45:22;9.55;;;8.15;;
69323;SDS011;56470;47.350;8.718;2022-07-22T06:47:47;9.50;;;7.67;;
69323;SDS011;56470;47.350;8.718;2022-07-22T06:50:13;10.53;;;7.73;;
69323;SDS011;56470;47.350;8.718;2022-07-22T06:52:39;11.97;;;7.77;;
69323;SDS011;56470;47.350;8.718;2022-07-22T06:55:07;11.75;;;7.13;;
69323;SDS011;56470;47.350;8.718;2022-07-22T06:57:34;11.23;;;7.90;;
69323;SDS011;56470;47.350;8.718;2022-07-22T07:00:02;13.45;;;7.50;;
69323;SDS011;56470;47.350;8.718;2022-07-22T07:02:30;14.70;;;7.10;;
69323;SDS011;56470;47.350;8.718;2022-07-22T07:04:55;10.60;;;7.37;;
69323;SDS011;56470;47.350;8.718;2022-07-22T07:07:21;12.30;;;7.35;;
69323;SDS011;56470;47.350;8.718;2022-07-22T07:09:48;10.47;;;7.33;;
69323;SDS011;56470;47.350;8.718;2022-07-22T07:12:15;10.82;;;7.60;;
69323;SDS011;56470;47.350;8.718;2022-07-22T07:14:41;9.82;;;7.53;;
69323;SDS011;56470;47.350;8.718;2022-07-22T07:17:06;10.17;;;6.97;;
69323;SDS011;56470;47.350;8.718;2022-07-22T07:19:32;12.07;;;8.27;;
69323;SDS011;56470;47.350;8.718;2022-07-22T07:21:57;11.57;;;8.47;;
69323;SDS011;56470;47.350;8.718;2022-07-22T07:24:22;10.97;;;8.40;;
69323;SDS011;56470;47.350;8.718;2022-07-22T07:26:48;13.43;;;8.27;;
69323;SDS011;56470;47.350;8.718;2022-07-22T07:29:14;13.82;;;9.07;;
69323;SDS011;56470;47.350;8.718;2022-07-22T07:31:40;11.77;;;9.17;;
69323;SDS011;56470;47.350;8.718;2022-07-22T07:34:05;11.00;;;8.70;;
69323;SDS011;56470;47.350;8.718;2022-07-22T07:36:30;11.73;;;8.67;;
69323;SDS011;56470;47.350;8.718;2022-07-22T07:38:56;10.93;;;8.73;;
69323;SDS011;56470;47.350;8.718;2022-07-22T07:41:21;13.20;;;9.73;;
69323;SDS011;56470;47.350;8.718;2022-07-22T07:43:47;14.65;;;8.55;;
69323;SDS011;56470;47.350;8.718;2022-07-22T07:46:12;11.40;;;8.60;;
69323;SDS011;56470;47.350;8.718;2022-07-22T07:48:38;108.40;;;17.53;;
69323;SDS011;56470;47.350;8.718;2022-07-22T07:51:03;19.67;;;9.75;;
69323;SDS011;56470;47.350;8.718;2022-07-22T07:53:30;12.33;;;9.57;;
69323;SDS011;56470;47.350;8.718;2022-07-22T07:55:55;12.93;;;9.13;;
69323;SDS011;56470;47.350;8.718;2022-07-22T07:58:21;15.23;;;8.90;;
69323;SDS011;56470;47.350;8.718;2022-07-22T08:00:46;43.33;;;10.63;;
69323;SDS011;56470;47.350;8.718;2022-07-22T08:03:12;16.83;;;9.85;;
69323;SDS011;56470;47.350;8.718;2022-07-22T08:05:37;12.50;;;9.40;;
69323;SDS011;56470;47.350;8.718;2022-07-22T08:08:04;13.52;;;9.82;;
69323;SDS011;56470;47.350;8.718;2022-07-22T08:10:30;13.25;;;8.85;;
69323;SDS011;56470;47.350;8.718;2022-07-22T08:12:55;16.17;;;10.10;;
69323;SDS011;56470;47.350;8.718;2022-07-22T08:15:22;17.05;;;10.52;;
69323;SDS011;56470;47.350;8.718;2022-07-22T08:17:49;16.88;;;10.48;;
69323;SDS011;56470;47.350;8.718;2022-07-22T08:20:15;13.00;;;9.57;;
69323;SDS011;56470;47.350;8.718;2022-07-22T08:22:40;16.40;;;10.33;;
69323;SDS011;56470;47.350;8.718;2022-07-22T08:25:06;11.88;;;9.70;;
69323;SDS011;56470;47.350;8.718;2022-07-22T08:27:31;13.53;;;9.70;;
69323;SDS011;56470;47.350;8.718;2022-07-22T08:29:57;12.93;;;10.27;;
69323;SDS011;56470;47.350;8.718;2022-07-22T08:32:22;13.32;;;10.48;;
69323;SDS011;56470;47.350;8.718;2022-07-22T08:34:48;15.10;;;9.47;;
69323;SDS011;56470;47.350;8.718;2022-07-22T08:37:14;12.60;;;10.63;;
69323;SDS011;56470;47.350;8.718;2022-07-22T08:39:39;12.53;;;10.03;;
69323;SDS011;56470;47.350;8.718;2022-07-22T08:42:05;13.33;;;10.17;;
69323;SDS011;56470;47.350;8.718;2022-07-22T08:44:31;13.68;;;10.15;;
69323;SDS011;56470;47.350;8.718;2022-07-22T08:46:58;13.63;;;10.80;;
69323;SDS011;56470;47.350;8.718;2022-07-22T08:49:25;13.27;;;10.20;;
69323;SDS011;56470;47.350;8.718;2022-07-22T08:51:51;13.73;;;10.73;;
69323;SDS011;56470;47.350;8.718;2022-07-22T08:54:17;17.57;;;10.33;;
69323;SDS011;56470;47.350;8.718;2022-07-22T08:56:45;15.18;;;10.30;;
69323;SDS011;56470;47.350;8.718;2022-07-22T08:59:14;14.13;;;11.43;;
69323;SDS011;56470;47.350;8.718;2022-07-22T09:02:00;14.63;;;9.45;;
69323;SDS011;56470;47.350;8.718;2022-07-22T09:04:27;12.98;;;10.65;;
69323;SDS011;56470;47.350;8.718;2022-07-22T09:06:53;16.00;;;11.23;;
69323;SDS011;56470;47.350;8.718;2022-07-22T09:09:24;12.73;;;10.75;;
69323;SDS011;56470;47.350;8.718;2022-07-22T09:12:13;12.70;;;10.30;;
69323;SDS011;56470;47.350;8.718;2022-07-22T09:14:46;14.55;;;10.30;;
69323;SDS011;56470;47.350;8.718;2022-07-22T09:17:29;16.50;;;11.07;;
69323;SDS011;56470;47.350;8.718;2022-07-22T09:19:55;13.27;;;10.50;;
69323;SDS011;56470;47.350;8.718;2022-07-22T09:22:31;12.65;;;10.73;;
69323;SDS011;56470;47.350;8.718;2022-07-22T09:27:46;13.10;;;9.68;;
69323;SDS011;56470;47.350;8.718;2022-07-22T09:30:13;17.45;;;10.07;;
69323;SDS011;56470;47.350;8.718;2022-07-22T09:32:41;11.40;;;9.90;;
69323;SDS011;56470;47.350;8.718;2022-07-22T09:35:07;14.23;;;10.80;;
69323;SDS011;56470;47.350;8.718;2022-07-22T09:37:32;13.47;;;10.47;;
69323;SDS011;56470;47.350;8.718;2022-07-22T09:40:19;13.00;;;9.48;;
69323;SDS011;56470;47.350;8.718;2022-07-22T09:42:59;17.07;;;12.63;;
69323;SDS011;56470;47.350;8.718;2022-07-22T09:45:27;13.82;;;11.27;;
69323;SDS011;56470;47.350;8.718;2022-07-22T09:47:55;11.85;;;9.40;;
69323;SDS011;56470;47.350;8.718;2022-07-22T09:52:51;13.05;;;9.95;;
69323;SDS011;56470;47.350;8.718;2022-07-22T09:55:19;12.93;;;11.50;;
69323;SDS011;56470;47.350;8.718;2022-07-22T09:57:47;13.13;;;10.48;;
69323;SDS011;56470;47.350;8.718;2022-07-22T10:00:14;12.68;;;10.55;;
69323;SDS011;56470;47.350;8.718;2022-07-22T10:05:24;15.57;;;10.55;;
69323;SDS011;56470;47.350;8.718;2022-07-22T10:07:51;12.93;;;9.70;;
69323;SDS011;56470;47.350;8.718;2022-07-22T10:10:18;12.48;;;10.60;;
69323;SDS011;56470;47.350;8.718;2022-07-22T10:12:45;12.70;;;10.40;;
69323;SDS011;56470;47.350;8.718;2022-07-22T10:15:16;12.85;;;10.45;;
69323;SDS011;56470;47.350;8.718;2022-07-22T10:17:42;12.60;;;10.27;;
69323;SDS011;56470;47.350;8.718;2022-07-22T10:20:10;12.25;;;10.93;;
69323;SDS011;56470;47.350;8.718;2022-07-22T10:25:05;12.43;;;10.25;;
69323;SDS011;56470;47.350;8.718;2022-07-22T10:27:45;13.17;;;10.07;;
69323;SDS011;56470;47.350;8.718;2022-07-22T10:30:26;13.75;;;9.82;;
69323;SDS011;56470;47.350;8.718;2022-07-22T10:33:06;12.55;;;9.45;;
69323;SDS011;56470;47.350;8.718;2022-07-22T10:38:27;12.50;;;9.73;;
69323;SDS011;56470;47.350;8.718;2022-07-22T10:41:00;12.10;;;9.17;;
69323;SDS011;56470;47.350;8.718;2022-07-22T10:43:31;11.80;;;9.00;;
69323;SDS011;56470;47.350;8.718;2022-07-22T10:46:11;12.18;;;9.30;;
69323;SDS011;56470;47.350;8.718;2022-07-22T10:56:50;12.73;;;9.60;;
69323;SDS011;56470;47.350;8.718;2022-07-22T10:59:11;15.70;;;10.23;;
69323;SDS011;56470;47.350;8.718;2022-07-22T11:01:41;11.68;;;10.00;;
69323;SDS011;56470;47.350;8.718;2022-07-22T11:04:19;14.35;;;10.73;;
69323;SDS011;56470;47.350;8.718;2022-07-22T11:06:47;11.10;;;8.73;;
69323;SDS011;56470;47.350;8.718;2022-07-22T11:09:16;17.67;;;9.43;;
69323;SDS011;56470;47.350;8.718;2022-07-22T11:16:59;12.25;;;10.02;;
69323;SDS011;56470;47.350;8.718;2022-07-22T11:19:29;11.70;;;9.07;;
69323;SDS011;56470;47.350;8.718;2022-07-22T11:21:58;12.13;;;9.48;;
69323;SDS011;56470;47.350;8.718;2022-07-22T11:24:27;12.40;;;9.57;;
69323;SDS011;56470;47.350;8.718;2022-07-22T11:26:53;14.07;;;9.23;;
69323;SDS011;56470;47.350;8.718;2022-07-22T11:29:37;15.75;;;10.43;;
69323;SDS011;56470;47.350;8.718;2022-07-22T11:32:14;12.07;;;8.77;;
69323;SDS011;56470;47.350;8.718;2022-07-22T11:34:40;16.17;;;9.68;;
69323;SDS011;56470;47.350;8.718;2022-07-22T11:37:10;11.13;;;9.23;;
69323;SDS011;56470;47.350;8.718;2022-07-22T11:39:36;10.60;;;8.32;;
69323;SDS011;56470;47.350;8.718;2022-07-22T11:42:01;11.63;;;9.07;;
69323;SDS011;56470;47.350;8.718;2022-07-22T11:44:28;12.10;;;9.20;;
69323;SDS011;56470;47.350;8.718;2022-07-22T11:46:55;11.00;;;8.27;;
69323;SDS011;56470;47.350;8.718;2022-07-22T11:49:23;11.18;;;9.30;;
69323;SDS011;56470;47.350;8.718;2022-07-22T11:51:50;12.90;;;9.68;;
69323;SDS011;56470;47.350;8.718;2022-07-22T11:54:17;10.05;;;8.25;;
69323;SDS011;56470;47.350;8.718;2022-07-22T11:56:44;12.95;;;9.93;;
69323;SDS011;56470;47.350;8.718;2022-07-22T11:59:13;13.97;;;9.70;;
69323;SDS011;56470;47.350;8.718;2022-07-22T12:01:40;11.32;;;9.60;;
69323;SDS011;56470;47.350;8.718;2022-07-22T12:04:19;12.70;;;9.37;;
69323;SDS011;56470;47.350;8.718;2022-07-22T12:06:49;16.15;;;10.60;;
69323;SDS011;56470;47.350;8.718;2022-07-22T12:09:15;11.80;;;9.68;;
69323;SDS011;56470;47.350;8.718;2022-07-22T12:11:55;11.68;;;9.43;;
69323;SDS011;56470;47.350;8.718;2022-07-22T12:14:24;17.10;;;10.13;;
69323;SDS011;56470;47.350;8.718;2022-07-22T12:16:59;10.43;;;8.70;;
69323;SDS011;56470;47.350;8.718;2022-07-22T12:19:25;12.40;;;8.15;;
69323;SDS011;56470;47.350;8.718;2022-07-22T12:21:57;10.15;;;8.57;;
69323;SDS011;56470;47.350;8.718;2022-07-22T12:24:34;9.55;;;8.15;;
69323;SDS011;56470;47.350;8.718;2022-07-22T12:27:05;23.13;;;8.77;;
69323;SDS011;56470;47.350;8.718;2022-07-22T12:34:39;13.40;;;7.50;;
69323;SDS011;56470;47.350;8.718;2022-07-22T12:37:42;12.02;;;8.80;;
69323;SDS011;56470;47.350;8.718;2022-07-22T12:42:45;11.77;;;8.27;;
69323;SDS011;56470;47.350;8.718;2022-07-22T12:45:16;10.97;;;8.37;;
69323;SDS011;56470;47.350;8.718;2022-07-22T12:47:53;12.90;;;8.55;;
69323;SDS011;56470;47.350;8.718;2022-07-22T12:50:30;10.90;;;8.70;;
69323;SDS011;56470;47.350;8.718;2022-07-22T12:55:44;12.50;;;9.20;;
69323;SDS011;56470;47.350;8.718;2022-07-22T12:58:28;9.93;;;7.60;;
69323;SDS011;56470;47.350;8.718;2022-07-22T13:00:56;11.10;;;8.30;;
69323;SDS011;56470;47.350;8.718;2022-07-22T13:03:22;11.18;;;8.82;;
69323;SDS011;56470;47.350;8.718;2022-07-22T13:05:53;11.02;;;8.45;;
69323;SDS011;56470;47.350;8.718;2022-07-22T13:08:20;11.55;;;8.75;;
69323;SDS011;56470;47.350;8.718;2022-07-22T13:10:47;11.80;;;7.80;;
69323;SDS011;56470;47.350;8.718;2022-07-22T13:13:17;10.98;;;8.23;;
69323;SDS011;56470;47.350;8.718;2022-07-22T13:15:42;10.52;;;8.13;;
69323;SDS011;56470;47.350;8.718;2022-07-22T13:18:08;10.97;;;9.17;;
69323;SDS011;56470;47.350;8.718;2022-07-22T13:20:33;11.50;;;8.60;;
69323;SDS011;56470;47.350;8.718;2022-07-22T13:22:59;10.73;;;8.43;;
69323;SDS011;56470;47.350;8.718;2022-07-22T13:25:24;11.43;;;8.23;;
69323;SDS011;56470;47.350;8.718;2022-07-22T13:27:51;12.57;;;9.05;;
69323;SDS011;56470;47.350;8.718;2022-07-22T13:30:17;12.00;;;7.88;;
69323;SDS011;56470;47.350;8.718;2022-07-22T13:32:43;10.90;;;7.50;;
69323;SDS011;56470;47.350;8.718;2022-07-22T13:35:08;12.53;;;7.83;;
69323;SDS011;56470;47.350;8.718;2022-07-22T13:37:34;9.38;;;7.20;;
69323;SDS011;56470;47.350;8.718;2022-07-22T13:40:00;9.93;;;8.10;;
69323;SDS011;56470;47.350;8.718;2022-07-22T13:42:27;11.00;;;7.72;;
69323;SDS011;56470;47.350;8.718;2022-07-22T13:44:52;10.73;;;7.95;;
69323;SDS011;56470;47.350;8.718;2022-07-22T13:47:19;9.63;;;7.40;;
69323;SDS011;56470;47.350;8.718;2022-07-22T13:49:45;13.23;;;8.07;;
69323;SDS011;56470;47.350;8.718;2022-07-22T13:52:11;9.85;;;8.27;;
69323;SDS011;56470;47.350;8.718;2022-07-22T13:54:38;9.73;;;7.28;;
69323;SDS011;56470;47.350;8.718;2022-07-22T13:57:04;10.23;;;8.13;;
69323;SDS011;56470;47.350;8.718;2022-07-22T13:59:32;10.18;;;7.65;;
69323;SDS011;56470;47.350;8.718;2022-07-22T14:01:58;9.48;;;7.80;;
69323;SDS011;56470;47.350;8.718;2022-07-22T14:04:24;9.93;;;7.63;;
69323;SDS011;56470;47.350;8.718;2022-07-22T14:06:50;12.53;;;7.70;;
69323;SDS011;56470;47.350;8.718;2022-07-22T14:09:16;10.65;;;7.45;;
69323;SDS011;56470;47.350;8.718;2022-07-22T14:11:41;11.13;;;8.07;;
69323;SDS011;56470;47.350;8.718;2022-07-22T14:14:07;11.13;;;7.63;;
69323;SDS011;56470;47.350;8.718;2022-07-22T14:16:34;9.23;;;7.55;;
69323;SDS011;56470;47.350;8.718;2022-07-22T14:21:33;10.23;;;7.87;;
69323;SDS011;56470;47.350;8.718;2022-07-22T14:23:59;9.95;;;8.52;;
69323;SDS011;56470;47.350;8.718;2022-07-22T14:26:25;12.13;;;7.45;;
69323;SDS011;56470;47.350;8.718;2022-07-22T14:28:50;10.60;;;8.00;;
69323;SDS011;56470;47.350;8.718;2022-07-22T14:31:15;10.70;;;7.67;;
69323;SDS011;56470;47.350;8.718;2022-07-22T14:33:41;9.73;;;7.70;;
69323;SDS011;56470;47.350;8.718;2022-07-22T14:36:07;10.17;;;7.87;;
69323;SDS011;56470;47.350;8.718;2022-07-22T14:38:33;10.73;;;7.53;;
69323;SDS011;56470;47.350;8.718;2022-07-22T14:40:58;10.90;;;7.63;;
69323;SDS011;56470;47.350;8.718;2022-07-22T14:43:23;10.33;;;7.37;;
69323;SDS011;56470;47.350;8.718;2022-07-22T14:45:49;10.15;;;7.78;;
69323;SDS011;56470;47.350;8.718;2022-07-22T14:48:14;10.60;;;7.80;;
69323;SDS011;56470;47.350;8.718;2022-07-22T14:50:40;11.30;;;7.40;;
69323;SDS011;56470;47.350;8.718;2022-07-22T14:53:05;8.82;;;7.05;;
69323;SDS011;56470;47.350;8.718;2022-07-22T14:55:31;9.70;;;7.77;;
69323;SDS011;56470;47.350;8.718;2022-07-22T14:57:56;10.97;;;7.57;;
69323;SDS011;56470;47.350;8.718;2022-07-22T15:00:22;9.60;;;7.07;;
69323;SDS011;56470;47.350;8.718;2022-07-22T15:02:47;9.60;;;7.53;;
69323;SDS011;56470;47.350;8.718;2022-07-22T15:05:12;8.57;;;7.53;;
69323;SDS011;56470;47.350;8.718;2022-07-22T15:07:38;9.47;;;7.40;;
69323;SDS011;56470;47.350;8.718;2022-07-22T15:10:05;11.82;;;8.32;;
69323;SDS011;56470;47.350;8.718;2022-07-22T15:12:31;9.35;;;7.25;;
69323;SDS011;56470;47.350;8.718;2022-07-22T15:14:57;10.30;;;7.70;;